Valparaiso, Chile
Current Conditions -  °F | °C
As of 7:00 PM on Saturday 20 Dec 2014 (Local Time) from SCVM Reporting Station
Overcast Overcast  
Wind Chill: 16°   Ceiling: 9000
Heat Index: 16°   Visibility: 6mi
Dew Point: 13°   Wind: 9mph
Humidity: 82%   Direction: 240°WSW
Pressure: 30.03"   Gusts: NA
Location:  33.04°S, 71.64°W
Report Text: SCVM 202200Z 24008KT 9999 FEW030 OVC090 16/13 Q1017
Loading
Personal Weather Stations






























Interactive Weather Map New forecast layout! Learn more

10-Day Weather Forecast

Advertisements
Track Severe Weather on mobile